Kerrick, Texas
Current Conditions -  °F | °C
As of 9:53 PM on Thursday 27 Nov 2014 (Local Time) from KDHT Reporting Station
Clear Clear  
Wind Chill: 35°   Ceiling: Unl
Heat Index: 42°   Visibility: 10mi
Dew Point: 27°   Wind: 13mph
Humidity: 55%   Direction: 220°SW
Pressure: 30.17"   Gusts: NA
Location:  36.5°N, 102.24°W
Report Text: KDHT 280353Z AUTO 22011KT 10SM CLR 06/M03 A3017 RMK AO2 SLP212 T00561028
Loading
Personal Weather Stations






























Interactive Weather Map New forecast layout! Learn more

10-Day Weather Forecast

Advertisements
Track Severe Weather on mobile